sensor_id;sensor_type;location;lat;lon;timestamp;pressure;altitude;pressure_sealevel;temperature;humidity
74403;BME280;62837;51.082;13.744;2022-10-17T00:01:31;101038.58;;;15.85;75.50
74403;BME280;62837;51.082;13.744;2022-10-17T00:04:02;101038.70;;;15.69;75.77
74403;BME280;62837;51.082;13.744;2022-10-17T00:06:33;101038.80;;;15.58;76.11
74403;BME280;62837;51.082;13.744;2022-10-17T00:09:04;101032.64;;;15.55;76.34
74403;BME280;62837;51.082;13.744;2022-10-17T00:11:35;101031.81;;;15.62;76.49
74403;BME280;62837;51.082;13.744;2022-10-17T00:14:05;101033.92;;;15.72;76.46
74403;BME280;62837;51.082;13.744;2022-10-17T00:16:36;101039.42;;;15.81;76.43
74403;BME280;62837;51.082;13.744;2022-10-17T00:19:07;101041.52;;;15.87;76.19
74403;BME280;62837;51.082;13.744;2022-10-17T00:21:38;101039.86;;;15.87;75.66
74403;BME280;62837;51.082;13.744;2022-10-17T00:24:09;101044.23;;;15.85;75.55
74403;BME280;62837;51.082;13.744;2022-10-17T00:26:39;101049.79;;;15.87;75.57
74403;BME280;62837;51.082;13.744;2022-10-17T00:29:10;101043.62;;;15.90;75.49
74403;BME280;62837;51.082;13.744;2022-10-17T00:31:41;101041.06;;;15.94;75.29
74403;BME280;62837;51.082;13.744;2022-10-17T00:34:12;101039.30;;;15.93;75.17
74403;BME280;62837;51.082;13.744;2022-10-17T00:36:42;101043.35;;;15.93;75.03
74403;BME280;62837;51.082;13.744;2022-10-17T00:39:13;101038.08;;;15.87;74.92
74403;BME280;62837;51.082;13.744;2022-10-17T00:41:44;101041.19;;;15.82;74.63
74403;BME280;62837;51.082;13.744;2022-10-17T00:47:22;101048.89;;;15.62;74.70
74403;BME280;62837;51.082;13.744;2022-10-17T00:49:53;101046.56;;;15.61;74.79
74403;BME280;62837;51.082;13.744;2022-10-17T00:52:30;101045.30;;;15.63;74.90
74403;BME280;62837;51.082;13.744;2022-10-17T00:55:04;101045.56;;;15.65;74.78
74403;BME280;62837;51.082;13.744;2022-10-17T00:57:38;101039.52;;;15.65;74.74
74403;BME280;62837;51.082;13.744;2022-10-17T01:00:12;101042.63;;;15.65;74.70
74403;BME280;62837;51.082;13.744;2022-10-17T01:02:43;101045.40;;;15.66;74.78
74403;BME280;62837;51.082;13.744;2022-10-17T01:05:14;101041.48;;;15.68;74.56
74403;BME280;62837;51.082;13.744;2022-10-17T01:07:46;101041.54;;;15.69;74.29
74403;BME280;62837;51.082;13.744;2022-10-17T01:10:19;101046.29;;;15.68;74.36
74403;BME280;62837;51.082;13.744;2022-10-17T01:12:59;101044.23;;;15.67;74.41
74403;BME280;62837;51.082;13.744;2022-10-17T01:15:42;101046.89;;;15.65;74.47
74403;BME280;62837;51.082;13.744;2022-10-17T01:18:28;101044.52;;;15.63;74.29
74403;BME280;62837;51.082;13.744;2022-10-17T01:21:27;101044.07;;;15.62;74.14
74403;BME280;62837;51.082;13.744;2022-10-17T01:27:36;101039.69;;;15.60;73.95
74403;BME280;62837;51.082;13.744;2022-10-17T01:33:15;101037.48;;;15.42;73.82
74403;BME280;62837;51.082;13.744;2022-10-17T01:35:52;101036.23;;;15.30;74.19
74403;BME280;62837;51.082;13.744;2022-10-17T01:38:35;101041.23;;;15.26;74.39
74403;BME280;62837;51.082;13.744;2022-10-17T01:41:15;101043.39;;;15.24;74.70
74403;BME280;62837;51.082;13.744;2022-10-17T01:43:54;101048.52;;;15.20;74.59
74403;BME280;62837;51.082;13.744;2022-10-17T01:46:31;101044.80;;;15.13;74.72
74403;BME280;62837;51.082;13.744;2022-10-17T01:49:05;101047.52;;;15.13;74.95
74403;BME280;62837;51.082;13.744;2022-10-17T01:51:40;101048.63;;;15.14;74.85
74403;BME280;62837;51.082;13.744;2022-10-17T01:54:16;101046.98;;;15.17;74.68
74403;BME280;62837;51.082;13.744;2022-10-17T01:56:50;101045.77;;;15.23;74.52
74403;BME280;62837;51.082;13.744;2022-10-17T01:59:25;101042.05;;;15.26;74.33
74403;BME280;62837;51.082;13.744;2022-10-17T02:01:59;101040.27;;;15.26;74.14
74403;BME280;62837;51.082;13.744;2022-10-17T02:04:30;101036.11;;;15.25;74.06
74403;BME280;62837;51.082;13.744;2022-10-17T02:07:08;101033.52;;;15.24;74.13
74403;BME280;62837;51.082;13.744;2022-10-17T02:09:40;101027.04;;;15.22;74.26
74403;BME280;62837;51.082;13.744;2022-10-17T02:12:26;101029.80;;;15.23;74.22
74403;BME280;62837;51.082;13.744;2022-10-17T02:15:13;101027.59;;;15.25;74.48
74403;BME280;62837;51.082;13.744;2022-10-17T02:17:52;101024.65;;;15.20;74.66
74403;BME280;62837;51.082;13.744;2022-10-17T02:20:30;101026.74;;;15.17;75.03
74403;BME280;62837;51.082;13.744;2022-10-17T02:23:06;101021.58;;;15.16;75.05
74403;BME280;62837;51.082;13.744;2022-10-17T02:25:40;101020.83;;;15.18;75.29
74403;BME280;62837;51.082;13.744;2022-10-17T02:28:21;101019.94;;;15.22;75.54
74403;BME280;62837;51.082;13.744;2022-10-17T02:30:57;101019.11;;;15.27;75.54
74403;BME280;62837;51.082;13.744;2022-10-17T02:33:33;101021.00;;;15.31;75.41
74403;BME280;62837;51.082;13.744;2022-10-17T02:36:09;101022.89;;;15.27;75.44
74403;BME280;62837;51.082;13.744;2022-10-17T02:38:43;101021.16;;;15.19;75.38
74403;BME280;62837;51.082;13.744;2022-10-17T02:41:17;101023.09;;;15.15;75.58
74403;BME280;62837;51.082;13.744;2022-10-17T02:43:49;101030.45;;;15.16;75.69
74403;BME280;62837;51.082;13.744;2022-10-17T02:46:22;101030.73;;;15.20;75.82
74403;BME280;62837;51.082;13.744;2022-10-17T02:48:57;101029.70;;;15.26;75.83
74403;BME280;62837;51.082;13.744;2022-10-17T02:51:35;101030.09;;;15.32;75.64
74403;BME280;62837;51.082;13.744;2022-10-17T02:54:10;101031.98;;;15.37;75.72
74403;BME280;62837;51.082;13.744;2022-10-17T02:56:50;101034.71;;;15.42;75.88
74403;BME280;62837;51.082;13.744;2022-10-17T02:59:23;101034.32;;;15.45;75.93
74403;BME280;62837;51.082;13.744;2022-10-17T03:01:55;101029.61;;;15.41;75.51
74403;BME280;62837;51.082;13.744;2022-10-17T03:04:26;101031.04;;;15.36;75.35
74403;BME280;62837;51.082;13.744;2022-10-17T03:06:57;101033.04;;;15.34;75.18
74403;BME280;62837;51.082;13.744;2022-10-17T03:09:27;101033.21;;;15.33;74.81
74403;BME280;62837;51.082;13.744;2022-10-17T03:11:58;101028.70;;;15.31;74.77
74403;BME280;62837;51.082;13.744;2022-10-17T03:14:29;101027.77;;;15.27;74.44
74403;BME280;62837;51.082;13.744;2022-10-17T03:17:00;101030.23;;;15.19;74.44
74403;BME280;62837;51.082;13.744;2022-10-17T03:19:31;101030.55;;;15.08;74.81
74403;BME280;62837;51.082;13.744;2022-10-17T03:22:02;101030.70;;;15.03;74.73
74403;BME280;62837;51.082;13.744;2022-10-17T03:24:34;101031.27;;;15.04;75.01
74403;BME280;62837;51.082;13.744;2022-10-17T03:27:05;101030.80;;;15.00;74.90
74403;BME280;62837;51.082;13.744;2022-10-17T03:29:36;101029.73;;;14.96;75.25
74403;BME280;62837;51.082;13.744;2022-10-17T03:32:07;101032.66;;;14.94;75.28
74403;BME280;62837;51.082;13.744;2022-10-17T03:34:38;101034.80;;;14.86;75.47
74403;BME280;62837;51.082;13.744;2022-10-17T03:37:09;101036.08;;;14.85;75.56
74403;BME280;62837;51.082;13.744;2022-10-17T03:39:40;101039.29;;;14.87;75.52
74403;BME280;62837;51.082;13.744;2022-10-17T03:42:10;101039.34;;;14.85;75.29
74403;BME280;62837;51.082;13.744;2022-10-17T03:44:41;101047.48;;;14.84;75.36
74403;BME280;62837;51.082;13.744;2022-10-17T03:47:12;101042.64;;;14.81;75.42
74403;BME280;62837;51.082;13.744;2022-10-17T03:49:43;101044.69;;;14.80;75.42
74403;BME280;62837;51.082;13.744;2022-10-17T03:52:14;101042.81;;;14.78;75.37
74403;BME280;62837;51.082;13.744;2022-10-17T03:54:46;101045.13;;;14.78;75.31
74403;BME280;62837;51.082;13.744;2022-10-17T03:57:17;101044.13;;;14.79;75.40
74403;BME280;62837;51.082;13.744;2022-10-17T03:59:50;101050.84;;;14.81;75.35
74403;BME280;62837;51.082;13.744;2022-10-17T04:02:21;101051.13;;;14.82;75.43
74403;BME280;62837;51.082;13.744;2022-10-17T04:04:52;101054.71;;;14.82;75.45
74403;BME280;62837;51.082;13.744;2022-10-17T04:07:23;101053.25;;;14.75;75.50
74403;BME280;62837;51.082;13.744;2022-10-17T04:09:59;101057.04;;;14.67;75.54
74403;BME280;62837;51.082;13.744;2022-10-17T04:12:30;101062.50;;;14.63;75.67
74403;BME280;62837;51.082;13.744;2022-10-17T04:15:01;101062.65;;;14.61;75.76
74403;BME280;62837;51.082;13.744;2022-10-17T04:17:32;101064.66;;;14.62;75.66
74403;BME280;62837;51.082;13.744;2022-10-17T04:20:08;101068.65;;;14.66;75.55
74403;BME280;62837;51.082;13.744;2022-10-17T04:22:39;101067.33;;;14.66;75.43
74403;BME280;62837;51.082;13.744;2022-10-17T04:25:12;101066.89;;;14.66;75.30
74403;BME280;62837;51.082;13.744;2022-10-17T04:27:46;101070.20;;;14.65;75.15
74403;BME280;62837;51.082;13.744;2022-10-17T04:30:17;101063.94;;;14.63;75.27
74403;BME280;62837;51.082;13.744;2022-10-17T04:32:48;101066.64;;;14.59;75.30
74403;BME280;62837;51.082;13.744;2022-10-17T04:35:22;101065.78;;;14.55;75.55
74403;BME280;62837;51.082;13.744;2022-10-17T04:37:59;101072.09;;;14.54;75.81
74403;BME280;62837;51.082;13.744;2022-10-17T04:40:29;101070.98;;;14.56;76.03
74403;BME280;62837;51.082;13.744;2022-10-17T04:43:00;101075.29;;;14.53;76.26
74403;BME280;62837;51.082;13.744;2022-10-17T04:45:35;101077.48;;;14.50;76.62
74403;BME280;62837;51.082;13.744;2022-10-17T04:48:07;101081.66;;;14.54;76.58
74403;BME280;62837;51.082;13.744;2022-10-17T04:50:37;101084.02;;;14.60;76.67
74403;BME280;62837;51.082;13.744;2022-10-17T04:53:21;101084.70;;;14.63;76.87
74403;BME280;62837;51.082;13.744;2022-10-17T04:55:53;101084.09;;;14.63;76.87
74403;BME280;62837;51.082;13.744;2022-10-17T04:58:24;101083.64;;;14.62;76.91
74403;BME280;62837;51.082;13.744;2022-10-17T05:00:55;101084.88;;;14.64;77.13
74403;BME280;62837;51.082;13.744;2022-10-17T05:03:29;101086.45;;;14.69;77.21
74403;BME280;62837;51.082;13.744;2022-10-17T05:06:04;101088.75;;;14.77;77.30
74403;BME280;62837;51.082;13.744;2022-10-17T05:08:36;101090.84;;;14.83;77.37
74403;BME280;62837;51.082;13.744;2022-10-17T05:11:16;101092.23;;;14.85;77.67
74403;BME280;62837;51.082;13.744;2022-10-17T05:13:51;101097.06;;;14.88;77.56
74403;BME280;62837;51.082;13.744;2022-10-17T05:16:23;101096.05;;;14.85;77.36
74403;BME280;62837;51.082;13.744;2022-10-17T05:18:57;101100.34;;;14.91;77.39
74403;BME280;62837;51.082;13.744;2022-10-17T05:21:32;101099.52;;;14.95;77.42
74403;BME280;62837;51.082;13.744;2022-10-17T05:24:08;101100.30;;;14.93;77.34
74403;BME280;62837;51.082;13.744;2022-10-17T05:26:39;101104.30;;;14.99;77.51
74403;BME280;62837;51.082;13.744;2022-10-17T05:29:10;101102.51;;;15.10;77.57
74403;BME280;62837;51.082;13.744;2022-10-17T05:31:43;101109.77;;;15.23;77.69
74403;BME280;62837;51.082;13.744;2022-10-17T05:34:14;101105.30;;;15.33;77.50
74403;BME280;62837;51.082;13.744;2022-10-17T05:36:46;101110.58;;;15.39;76.76
74403;BME280;62837;51.082;13.744;2022-10-17T05:39:18;101112.20;;;15.38;76.68
74403;BME280;62837;51.082;13.744;2022-10-17T05:41:50;101113.95;;;15.35;76.74
74403;BME280;62837;51.082;13.744;2022-10-17T05:44:21;101120.98;;;15.32;76.82
74403;BME280;62837;51.082;13.744;2022-10-17T05:46:55;101117.53;;;15.28;77.07
74403;BME280;62837;51.082;13.744;2022-10-17T05:49:25;101120.13;;;15.26;77.18
74403;BME280;62837;51.082;13.744;2022-10-17T05:52:16;101119.68;;;15.25;77.32
74403;BME280;62837;51.082;13.744;2022-10-17T05:54:56;101122.61;;;15.25;77.52
74403;BME280;62837;51.082;13.744;2022-10-17T05:57:27;101123.66;;;15.25;77.56
74403;BME280;62837;51.082;13.744;2022-10-17T05:59:58;101125.45;;;15.25;77.63
74403;BME280;62837;51.082;13.744;2022-10-17T06:02:49;101122.63;;;15.27;77.61
74403;BME280;62837;51.082;13.744;2022-10-17T06:05:22;101128.45;;;15.27;77.57
74403;BME280;62837;51.082;13.744;2022-10-17T06:07:53;101129.52;;;15.28;77.54
74403;BME280;62837;51.082;13.744;2022-10-17T06:10:30;101128.86;;;15.29;77.55
74403;BME280;62837;51.082;13.744;2022-10-17T06:13:01;101134.44;;;15.31;77.63
74403;BME280;62837;51.082;13.744;2022-10-17T06:15:32;101134.22;;;15.29;77.74
74403;BME280;62837;51.082;13.744;2022-10-17T06:18:07;101142.02;;;15.25;77.78
74403;BME280;62837;51.082;13.744;2022-10-17T06:20:37;101143.34;;;15.23;77.76
74403;BME280;62837;51.082;13.744;2022-10-17T06:23:15;101137.73;;;15.16;77.82
74403;BME280;62837;51.082;13.744;2022-10-17T06:25:59;101154.48;;;15.19;77.79
74403;BME280;62837;51.082;13.744;2022-10-17T06:28:31;101152.63;;;15.20;77.71
74403;BME280;62837;51.082;13.744;2022-10-17T06:31:06;101155.86;;;15.25;77.79
74403;BME280;62837;51.082;13.744;2022-10-17T06:33:38;101155.74;;;15.36;77.62
74403;BME280;62837;51.082;13.744;2022-10-17T06:36:12;101159.80;;;15.49;77.55
74403;BME280;62837;51.082;13.744;2022-10-17T06:38:43;101164.56;;;15.64;77.45
74403;BME280;62837;51.082;13.744;2022-10-17T06:41:21;101164.38;;;15.86;77.81
74403;BME280;62837;51.082;13.744;2022-10-17T06:43:55;101164.19;;;16.13;77.49
74403;BME280;62837;51.082;13.744;2022-10-17T06:46:38;101165.73;;;16.37;77.28
74403;BME280;62837;51.082;13.744;2022-10-17T06:49:11;101164.51;;;16.62;76.95
74403;BME280;62837;51.082;13.744;2022-10-17T06:51:50;101165.67;;;16.90;76.47
74403;BME280;62837;51.082;13.744;2022-10-17T06:54:24;101171.15;;;17.14;75.99
74403;BME280;62837;51.082;13.744;2022-10-17T06:57:14;101167.86;;;17.41;75.40
74403;BME280;62837;51.082;13.744;2022-10-17T07:00:05;101174.98;;;17.63;74.51
74403;BME280;62837;51.082;13.744;2022-10-17T07:02:44;101184.69;;;17.82;73.90
74403;BME280;62837;51.082;13.744;2022-10-17T07:05:14;101180.55;;;17.99;73.58
74403;BME280;62837;51.082;13.744;2022-10-17T07:07:46;101184.56;;;18.15;72.81
74403;BME280;62837;51.082;13.744;2022-10-17T07:10:20;101186.39;;;18.29;72.49
74403;BME280;62837;51.082;13.744;2022-10-17T07:12:51;101185.77;;;18.45;72.36
74403;BME280;62837;51.082;13.744;2022-10-17T07:15:22;101190.38;;;18.62;71.56
74403;BME280;62837;51.082;13.744;2022-10-17T07:17:52;101190.07;;;18.76;71.20
74403;BME280;62837;51.082;13.744;2022-10-17T07:20:24;101191.41;;;18.90;70.13
74403;BME280;62837;51.082;13.744;2022-10-17T07:22:55;101187.97;;;18.94;69.75
74403;BME280;62837;51.082;13.744;2022-10-17T07:25:25;101194.57;;;19.08;69.38
74403;BME280;62837;51.082;13.744;2022-10-17T07:28:01;101189.55;;;19.12;68.78
74403;BME280;62837;51.082;13.744;2022-10-17T07:30:33;101192.95;;;19.18;68.80
74403;BME280;62837;51.082;13.744;2022-10-17T07:33:09;101193.53;;;19.24;68.07
74403;BME280;62837;51.082;13.744;2022-10-17T07:35:40;101209.56;;;19.27;67.62
74403;BME280;62837;51.082;13.744;2022-10-17T07:38:12;101202.38;;;19.32;67.56
74403;BME280;62837;51.082;13.744;2022-10-17T07:40:43;101206.24;;;19.46;67.16
74403;BME280;62837;51.082;13.744;2022-10-17T07:43:14;101206.18;;;19.51;66.05
74403;BME280;62837;51.082;13.744;2022-10-17T07:45:44;101206.35;;;19.55;66.53
74403;BME280;62837;51.082;13.744;2022-10-17T07:48:15;101211.84;;;19.62;66.02
74403;BME280;62837;51.082;13.744;2022-10-17T07:50:46;101216.23;;;19.71;65.91
74403;BME280;62837;51.082;13.744;2022-10-17T07:53:18;101212.55;;;19.83;65.50
74403;BME280;62837;51.082;13.744;2022-10-17T07:55:48;101209.13;;;19.88;65.23
74403;BME280;62837;51.082;13.744;2022-10-17T07:58:19;101213.86;;;19.96;65.23
74403;BME280;62837;51.082;13.744;2022-10-17T08:00:50;101211.68;;;20.01;64.91
74403;BME280;62837;51.082;13.744;2022-10-17T08:03:21;101218.06;;;20.10;65.05
74403;BME280;62837;51.082;13.744;2022-10-17T08:05:52;101219.40;;;20.25;64.66
74403;BME280;62837;51.082;13.744;2022-10-17T08:08:26;101216.73;;;20.27;63.93
74403;BME280;62837;51.082;13.744;2022-10-17T08:11:02;101216.33;;;20.21;63.61
74403;BME280;62837;51.082;13.744;2022-10-17T08:13:34;101215.38;;;20.21;63.86
74403;BME280;62837;51.082;13.744;2022-10-17T08:16:07;101216.26;;;20.30;64.00
74403;BME280;62837;51.082;13.744;2022-10-17T08:18:40;101213.39;;;20.36;63.55
74403;BME280;62837;51.082;13.744;2022-10-17T08:21:09;101213.77;;;20.40;63.74
74403;BME280;62837;51.082;13.744;2022-10-17T08:23:41;101214.48;;;20.44;63.65
74403;BME280;62837;51.082;13.744;2022-10-17T08:26:13;101217.91;;;20.49;63.30
74403;BME280;62837;51.082;13.744;2022-10-17T08:28:46;101215.84;;;20.59;62.74
74403;BME280;62837;51.082;13.744;2022-10-17T08:31:19;101217.23;;;20.60;62.60
74403;BME280;62837;51.082;13.744;2022-10-17T08:33:51;101221.09;;;20.62;62.42
74403;BME280;62837;51.082;13.744;2022-10-17T08:36:21;101220.55;;;20.68;62.59
74403;BME280;62837;51.082;13.744;2022-10-17T08:38:52;101220.27;;;20.74;62.32
74403;BME280;62837;51.082;13.744;2022-10-17T08:41:38;101220.50;;;20.71;61.84
74403;BME280;62837;51.082;13.744;2022-10-17T08:44:21;101215.19;;;20.72;61.73
74403;BME280;62837;51.082;13.744;2022-10-17T08:46:57;101217.11;;;20.73;61.67
74403;BME280;62837;51.082;13.744;2022-10-17T08:49:36;101219.59;;;20.75;61.72
74403;BME280;62837;51.082;13.744;2022-10-17T08:52:14;101220.23;;;20.80;61.54
74403;BME280;62837;51.082;13.744;2022-10-17T08:54:47;101217.66;;;20.80;60.99
74403;BME280;62837;51.082;13.744;2022-10-17T08:57:18;101222.33;;;20.75;61.28
74403;BME280;62837;51.082;13.744;2022-10-17T08:59:52;101222.23;;;20.74;61.18
74403;BME280;62837;51.082;13.744;2022-10-17T09:02:42;101217.98;;;20.77;61.23
74403;BME280;62837;51.082;13.744;2022-10-17T09:05:36;101216.14;;;20.83;61.23
74403;BME280;62837;51.082;13.744;2022-10-17T09:08:19;101215.89;;;20.87;61.09
74403;BME280;62837;51.082;13.744;2022-10-17T09:10:59;101215.92;;;20.85;61.16
74403;BME280;62837;51.082;13.744;2022-10-17T09:13:42;101215.04;;;20.85;60.92
74403;BME280;62837;51.082;13.744;2022-10-17T09:16:30;101211.67;;;20.91;60.85
74403;BME280;62837;51.082;13.744;2022-10-17T09:19:11;101210.90;;;20.95;60.66
74403;BME280;62837;51.082;13.744;2022-10-17T09:21:49;101213.87;;;20.88;60.75
74403;BME280;62837;51.082;13.744;2022-10-17T09:24:27;101220.28;;;20.88;60.52
74403;BME280;62837;51.082;13.744;2022-10-17T09:27:01;101211.10;;;20.89;60.41
74403;BME280;62837;51.082;13.744;2022-10-17T09:29:33;101216.12;;;20.87;60.39
74403;BME280;62837;51.082;13.744;2022-10-17T09:32:16;101209.68;;;20.85;60.65
74403;BME280;62837;51.082;13.744;2022-10-17T09:34:48;101216.74;;;20.90;60.20
74403;BME280;62837;51.082;13.744;2022-10-17T09:37:28;101204.76;;;20.88;60.32
74403;BME280;62837;51.082;13.744;2022-10-17T09:40:00;101216.43;;;20.97;60.17
74403;BME280;62837;51.082;13.744;2022-10-17T09:42:31;101210.39;;;21.03;59.83
74403;BME280;62837;51.082;13.744;2022-10-17T09:45:15;101214.52;;;21.04;59.81
74403;BME280;62837;51.082;13.744;2022-10-17T09:47:53;101220.91;;;21.09;59.59
74403;BME280;62837;51.082;13.744;2022-10-17T09:50:31;101210.56;;;21.08;59.59
74403;BME280;62837;51.082;13.744;2022-10-17T09:53:09;101210.48;;;21.11;59.63
74403;BME280;62837;51.082;13.744;2022-10-17T09:55:44;101216.92;;;21.13;59.35
74403;BME280;62837;51.082;13.744;2022-10-17T09:58:17;101202.65;;;21.13;59.45
74403;BME280;62837;51.082;13.744;2022-10-17T10:00:50;101202.80;;;21.16;59.43
74403;BME280;62837;51.082;13.744;2022-10-17T10:03:22;101202.48;;;21.14;59.26
74403;BME280;62837;51.082;13.744;2022-10-17T10:06:02;101202.98;;;21.13;59.00
74403;BME280;62837;51.082;13.744;2022-10-17T10:08:36;101203.42;;;21.15;59.13
74403;BME280;62837;51.082;13.744;2022-10-17T10:11:09;101204.93;;;21.16;59.08
74403;BME280;62837;51.082;13.744;2022-10-17T10:13:43;101203.37;;;21.15;59.01
74403;BME280;62837;51.082;13.744;2022-10-17T10:16:18;101212.44;;;21.15;58.74
74403;BME280;62837;51.082;13.744;2022-10-17T10:18:50;101205.85;;;21.11;58.80
74403;BME280;62837;51.082;13.744;2022-10-17T10:21:22;101211.66;;;21.08;58.71
74403;BME280;62837;51.082;13.744;2022-10-17T10:24:12;101208.15;;;21.06;59.00
74403;BME280;62837;51.082;13.744;2022-10-17T10:26:44;101207.86;;;21.07;58.84
74403;BME280;62837;51.082;13.744;2022-10-17T10:29:26;101206.33;;;21.05;59.03
74403;BME280;62837;51.082;13.744;2022-10-17T10:32:08;101206.98;;;21.07;59.03
74403;BME280;62837;51.082;13.744;2022-10-17T10:34:47;101211.58;;;21.06;58.70
74403;BME280;62837;51.082;13.744;2022-10-17T10:37:21;101211.99;;;21.03;58.75
74403;BME280;62837;51.082;13.744;2022-10-17T10:39:55;101207.83;;;21.02;58.81
74403;BME280;62837;51.082;13.744;2022-10-17T10:42:29;101198.39;;;21.02;59.12
74403;BME280;62837;51.082;13.744;2022-10-17T10:45:14;101197.84;;;21.02;58.91
74403;BME280;62837;51.082;13.744;2022-10-17T10:48:17;101185.98;;;20.99;58.93
74403;BME280;62837;51.082;13.744;2022-10-17T10:50:51;101182.17;;;20.96;59.25
74403;BME280;62837;51.082;13.744;2022-10-17T10:53:33;101176.80;;;20.96;59.20
74403;BME280;62837;51.082;13.744;2022-10-17T10:56:12;101185.30;;;20.98;59.12
74403;BME280;62837;51.082;13.744;2022-10-17T10:58:52;101191.69;;;20.98;58.90
74403;BME280;62837;51.082;13.744;2022-10-17T11:01:29;101201.20;;;20.98;58.74
74403;BME280;62837;51.082;13.744;2022-10-17T11:04:18;101190.80;;;20.96;58.55
74403;BME280;62837;51.082;13.744;2022-10-17T11:06:54;101189.73;;;20.96;59.02
74403;BME280;62837;51.082;13.744;2022-10-17T11:09:36;101194.86;;;20.99;58.85
74403;BME280;62837;51.082;13.744;2022-10-17T11:12:17;101192.89;;;21.00;58.94
74403;BME280;62837;51.082;13.744;2022-10-17T11:14:55;101189.90;;;21.01;58.88
74403;BME280;62837;51.082;13.744;2022-10-17T11:17:35;101184.58;;;21.02;58.79
74403;BME280;62837;51.082;13.744;2022-10-17T11:20:21;101179.11;;;21.04;59.02
74403;BME280;62837;51.082;13.744;2022-10-17T11:23:00;101182.22;;;21.08;59.14
74403;BME280;62837;51.082;13.744;2022-10-17T11:25:34;101174.44;;;21.12;58.92
74403;BME280;62837;51.082;13.744;2022-10-17T11:28:13;101162.81;;;21.15;59.03
74403;BME280;62837;51.082;13.744;2022-10-17T11:30:50;101161.22;;;21.19;59.09
74403;BME280;62837;51.082;13.744;2022-10-17T11:33:28;101162.33;;;21.24;58.94
74403;BME280;62837;51.082;13.744;2022-10-17T11:36:04;101163.41;;;21.29;58.67
74403;BME280;62837;51.082;13.744;2022-10-17T11:38:46;101153.51;;;21.32;58.82
74403;BME280;62837;51.082;13.744;2022-10-17T11:41:21;101157.52;;;21.36;58.85
74403;BME280;62837;51.082;13.744;2022-10-17T11:43:59;101152.73;;;21.39;58.94
74403;BME280;62837;51.082;13.744;2022-10-17T11:46:34;101151.06;;;21.44;59.13
74403;BME280;62837;51.082;13.744;2022-10-17T11:49:11;101151.61;;;21.49;58.87
74403;BME280;62837;51.082;13.744;2022-10-17T11:51:51;101146.73;;;21.53;58.78
74403;BME280;62837;51.082;13.744;2022-10-17T11:54:34;101146.10;;;21.56;58.55
74403;BME280;62837;51.082;13.744;2022-10-17T11:57:19;101145.27;;;21.58;58.39
74403;BME280;62837;51.082;13.744;2022-10-17T12:00:05;101133.55;;;21.58;58.45
74403;BME280;62837;51.082;13.744;2022-10-17T12:02:44;101131.02;;;21.60;58.49
74403;BME280;62837;51.082;13.744;2022-10-17T12:05:18;101125.23;;;21.60;58.42
74403;BME280;62837;51.082;13.744;2022-10-17T12:07:57;101126.36;;;21.62;58.61
74403;BME280;62837;51.082;13.744;2022-10-17T12:10:36;101115.23;;;21.64;58.55
74403;BME280;62837;51.082;13.744;2022-10-17T12:19:35;101102.94;;;21.73;58.22
74403;BME280;62837;51.082;13.744;2022-10-17T12:22:26;101094.22;;;21.77;58.22
74403;BME280;62837;51.082;13.744;2022-10-17T12:24:59;101092.77;;;21.81;58.08
74403;BME280;62837;51.082;13.744;2022-10-17T12:27:39;101095.04;;;21.84;58.11
74403;BME280;62837;51.082;13.744;2022-10-17T12:30:20;101097.46;;;21.88;58.00
74403;BME280;62837;51.082;13.744;2022-10-17T12:33:01;101096.02;;;21.92;57.93
74403;BME280;62837;51.082;13.744;2022-10-17T12:35:37;101094.17;;;21.96;57.95
74403;BME280;62837;51.082;13.744;2022-10-17T12:41:05;101090.51;;;22.01;57.62
74403;BME280;62837;51.082;13.744;2022-10-17T12:43:52;101083.42;;;22.05;57.39
74403;BME280;62837;51.082;13.744;2022-10-17T12:46:47;101085.64;;;22.07;57.14
74403;BME280;62837;51.082;13.744;2022-10-17T12:49:39;101074.16;;;22.09;56.98
74403;BME280;62837;51.082;13.744;2022-10-17T12:55:16;101066.33;;;22.16;56.93
74403;BME280;62837;51.082;13.744;2022-10-17T12:57:55;101072.14;;;22.18;56.48
74403;BME280;62837;51.082;13.744;2022-10-17T13:00:34;101065.70;;;22.20;56.55
74403;BME280;62837;51.082;13.744;2022-10-17T13:03:13;101072.02;;;22.22;56.19
74403;BME280;62837;51.082;13.744;2022-10-17T13:05:50;101067.15;;;22.22;56.18
74403;BME280;62837;51.082;13.744;2022-10-17T13:08:24;101068.77;;;22.22;56.01
74403;BME280;62837;51.082;13.744;2022-10-17T13:10:57;101063.20;;;22.21;56.05
74403;BME280;62837;51.082;13.744;2022-10-17T13:13:36;101064.25;;;22.22;56.07
74403;BME280;62837;51.082;13.744;2022-10-17T13:16:09;101067.38;;;22.22;56.03
74403;BME280;62837;51.082;13.744;2022-10-17T13:18:57;101069.73;;;22.21;55.96
74403;BME280;62837;51.082;13.744;2022-10-17T13:21:29;101069.46;;;22.20;55.78
74403;BME280;62837;51.082;13.744;2022-10-17T13:23:59;101068.48;;;22.19;55.70
74403;BME280;62837;51.082;13.744;2022-10-17T13:26:30;101072.79;;;22.17;55.95
74403;BME280;62837;51.082;13.744;2022-10-17T13:29:09;101072.93;;;22.13;55.83
74403;BME280;62837;51.082;13.744;2022-10-17T13:31:42;101075.47;;;22.09;55.83
74403;BME280;62837;51.082;13.744;2022-10-17T13:34:18;101070.07;;;22.03;55.68
74403;BME280;62837;51.082;13.744;2022-10-17T13:36:53;101071.95;;;21.95;55.69
74403;BME280;62837;51.082;13.744;2022-10-17T13:39:28;101072.21;;;21.90;55.92
74403;BME280;62837;51.082;13.744;2022-10-17T13:42:23;101071.88;;;21.83;56.17
74403;BME280;62837;51.082;13.744;2022-10-17T13:44:56;101073.19;;;21.78;56.33